sensor_id;sensor_type;location;lat;lon;timestamp;P1;durP1;ratioP1;P2;durP2;ratioP2
51260;SDS011;61705;46.228;24.812;2022-11-21T00:00:49;37.45;;;15.35;;
51260;SDS011;61705;46.228;24.812;2022-11-21T00:03:18;38.65;;;15.98;;
51260;SDS011;61705;46.228;24.812;2022-11-21T00:05:46;33.85;;;13.95;;
51260;SDS011;61705;46.228;24.812;2022-11-21T00:08:15;40.08;;;14.52;;
51260;SDS011;61705;46.228;24.812;2022-11-21T00:10:44;36.92;;;14.98;;
51260;SDS011;61705;46.228;24.812;2022-11-21T00:13:12;33.20;;;14.38;;
51260;SDS011;61705;46.228;24.812;2022-11-21T00:15:40;32.70;;;13.15;;
51260;SDS011;61705;46.228;24.812;2022-11-21T00:18:07;36.25;;;14.75;;
51260;SDS011;61705;46.228;24.812;2022-11-21T00:20:33;36.05;;;13.63;;
51260;SDS011;61705;46.228;24.812;2022-11-21T00:23:02;37.65;;;14.98;;
51260;SDS011;61705;46.228;24.812;2022-11-21T00:25:29;42.25;;;15.63;;
51260;SDS011;61705;46.228;24.812;2022-11-21T00:27:56;38.33;;;14.85;;
51260;SDS011;61705;46.228;24.812;2022-11-21T00:30:23;35.17;;;14.50;;
51260;SDS011;61705;46.228;24.812;2022-11-21T00:32:49;31.08;;;13.38;;
51260;SDS011;61705;46.228;24.812;2022-11-21T00:35:16;33.00;;;13.10;;
51260;SDS011;61705;46.228;24.812;2022-11-21T00:37:43;35.85;;;13.88;;
51260;SDS011;61705;46.228;24.812;2022-11-21T00:40:10;33.08;;;14.32;;
51260;SDS011;61705;46.228;24.812;2022-11-21T00:42:38;34.58;;;13.73;;
51260;SDS011;61705;46.228;24.812;2022-11-21T00:45:04;35.53;;;13.43;;
51260;SDS011;61705;46.228;24.812;2022-11-21T00:47:31;34.60;;;13.75;;
51260;SDS011;61705;46.228;24.812;2022-11-21T00:49:58;35.92;;;14.13;;
51260;SDS011;61705;46.228;24.812;2022-11-21T00:52:24;31.45;;;13.70;;
51260;SDS011;61705;46.228;24.812;2022-11-21T00:54:51;31.15;;;12.75;;
51260;SDS011;61705;46.228;24.812;2022-11-21T00:57:18;30.45;;;13.23;;
51260;SDS011;61705;46.228;24.812;2022-11-21T00:59:44;29.50;;;12.80;;
51260;SDS011;61705;46.228;24.812;2022-11-21T01:02:11;28.63;;;11.82;;
51260;SDS011;61705;46.228;24.812;2022-11-21T01:04:39;29.50;;;13.13;;
51260;SDS011;61705;46.228;24.812;2022-11-21T01:07:05;30.15;;;13.70;;
51260;SDS011;61705;46.228;24.812;2022-11-21T01:09:32;32.97;;;13.32;;
51260;SDS011;61705;46.228;24.812;2022-11-21T01:11:59;32.08;;;13.38;;
51260;SDS011;61705;46.228;24.812;2022-11-21T01:14:25;29.38;;;12.13;;
51260;SDS011;61705;46.228;24.812;2022-11-21T01:16:53;30.45;;;12.88;;
51260;SDS011;61705;46.228;24.812;2022-11-21T01:19:19;32.42;;;13.50;;
51260;SDS011;61705;46.228;24.812;2022-11-21T01:21:46;30.83;;;12.82;;
51260;SDS011;61705;46.228;24.812;2022-11-21T01:24:12;35.38;;;13.45;;
51260;SDS011;61705;46.228;24.812;2022-11-21T01:26:39;27.55;;;10.88;;
51260;SDS011;61705;46.228;24.812;2022-11-21T01:29:06;27.60;;;11.07;;
51260;SDS011;61705;46.228;24.812;2022-11-21T01:31:34;25.20;;;9.77;;
51260;SDS011;61705;46.228;24.812;2022-11-21T01:34:01;22.05;;;9.38;;
51260;SDS011;61705;46.228;24.812;2022-11-21T01:36:31;20.35;;;8.73;;
51260;SDS011;61705;46.228;24.812;2022-11-21T01:39:00;23.60;;;9.10;;
51260;SDS011;61705;46.228;24.812;2022-11-21T01:41:30;19.98;;;9.00;;
51260;SDS011;61705;46.228;24.812;2022-11-21T01:43:59;21.65;;;9.23;;
51260;SDS011;61705;46.228;24.812;2022-11-21T01:46:29;23.20;;;10.80;;
51260;SDS011;61705;46.228;24.812;2022-11-21T01:51:43;26.05;;;11.15;;
51260;SDS011;61705;46.228;24.812;2022-11-21T01:59:43;24.80;;;11.30;;
51260;SDS011;61705;46.228;24.812;2022-11-21T02:02:29;22.90;;;10.02;;
51260;SDS011;61705;46.228;24.812;2022-11-21T02:04:59;25.23;;;10.50;;
51260;SDS011;61705;46.228;24.812;2022-11-21T02:07:28;27.33;;;11.40;;
51260;SDS011;61705;46.228;24.812;2022-11-21T02:09:59;23.27;;;11.60;;
51260;SDS011;61705;46.228;24.812;2022-11-21T02:13:00;27.30;;;11.30;;
51260;SDS011;61705;46.228;24.812;2022-11-21T02:15:22;24.13;;;11.27;;
51260;SDS011;61705;46.228;24.812;2022-11-21T02:17:51;23.40;;;10.55;;
51260;SDS011;61705;46.228;24.812;2022-11-21T02:20:19;22.48;;;9.85;;
51260;SDS011;61705;46.228;24.812;2022-11-21T02:25:33;21.25;;;9.40;;
51260;SDS011;61705;46.228;24.812;2022-11-21T02:28:03;22.90;;;10.38;;
51260;SDS011;61705;46.228;24.812;2022-11-21T02:30:33;21.05;;;9.73;;
51260;SDS011;61705;46.228;24.812;2022-11-21T02:33:02;23.13;;;9.57;;
51260;SDS011;61705;46.228;24.812;2022-11-21T02:35:29;19.67;;;9.38;;
51260;SDS011;61705;46.228;24.812;2022-11-21T02:40:47;26.15;;;11.25;;
51260;SDS011;61705;46.228;24.812;2022-11-21T02:46:13;19.88;;;9.32;;
51260;SDS011;61705;46.228;24.812;2022-11-21T02:48:39;21.10;;;10.07;;
51260;SDS011;61705;46.228;24.812;2022-11-21T02:51:07;21.95;;;9.70;;
51260;SDS011;61705;46.228;24.812;2022-11-21T02:53:34;19.55;;;8.75;;
51260;SDS011;61705;46.228;24.812;2022-11-21T02:56:00;19.75;;;8.85;;
51260;SDS011;61705;46.228;24.812;2022-11-21T02:58:27;17.15;;;8.52;;
51260;SDS011;61705;46.228;24.812;2022-11-21T03:00:54;17.00;;;8.55;;
51260;SDS011;61705;46.228;24.812;2022-11-21T03:03:21;18.05;;;8.13;;
51260;SDS011;61705;46.228;24.812;2022-11-21T03:05:47;20.15;;;8.98;;
51260;SDS011;61705;46.228;24.812;2022-11-21T03:08:14;18.98;;;8.10;;
51260;SDS011;61705;46.228;24.812;2022-11-21T03:10:41;17.38;;;8.60;;
51260;SDS011;61705;46.228;24.812;2022-11-21T03:13:07;18.30;;;8.35;;
51260;SDS011;61705;46.228;24.812;2022-11-21T03:15:34;16.63;;;7.75;;
51260;SDS011;61705;46.228;24.812;2022-11-21T03:18:01;17.38;;;8.07;;
51260;SDS011;61705;46.228;24.812;2022-11-21T03:20:32;18.63;;;7.75;;
51260;SDS011;61705;46.228;24.812;2022-11-21T03:23:00;16.02;;;7.30;;
51260;SDS011;61705;46.228;24.812;2022-11-21T03:25:27;16.52;;;7.65;;
51260;SDS011;61705;46.228;24.812;2022-11-21T03:27:54;16.60;;;7.78;;
51260;SDS011;61705;46.228;24.812;2022-11-21T03:30:21;19.52;;;8.10;;
51260;SDS011;61705;46.228;24.812;2022-11-21T03:32:49;17.13;;;8.13;;
51260;SDS011;61705;46.228;24.812;2022-11-21T03:35:16;16.55;;;8.10;;
51260;SDS011;61705;46.228;24.812;2022-11-21T03:37:43;14.30;;;6.80;;
51260;SDS011;61705;46.228;24.812;2022-11-21T03:40:10;14.80;;;8.15;;
51260;SDS011;61705;46.228;24.812;2022-11-21T03:42:37;14.77;;;7.40;;
51260;SDS011;61705;46.228;24.812;2022-11-21T03:45:04;12.70;;;6.50;;
51260;SDS011;61705;46.228;24.812;2022-11-21T03:47:31;16.75;;;7.00;;
51260;SDS011;61705;46.228;24.812;2022-11-21T03:49:58;12.80;;;6.47;;
51260;SDS011;61705;46.228;24.812;2022-11-21T03:52:24;17.20;;;7.47;;
51260;SDS011;61705;46.228;24.812;2022-11-21T03:54:51;13.38;;;7.05;;
51260;SDS011;61705;46.228;24.812;2022-11-21T03:57:18;11.05;;;4.93;;
51260;SDS011;61705;46.228;24.812;2022-11-21T03:59:44;10.38;;;5.10;;
51260;SDS011;61705;46.228;24.812;2022-11-21T04:02:11;11.45;;;6.05;;
51260;SDS011;61705;46.228;24.812;2022-11-21T04:04:37;13.88;;;5.72;;
51260;SDS011;61705;46.228;24.812;2022-11-21T04:07:04;11.38;;;4.50;;
51260;SDS011;61705;46.228;24.812;2022-11-21T04:09:31;9.85;;;4.68;;
51260;SDS011;61705;46.228;24.812;2022-11-21T04:11:57;9.68;;;3.53;;
51260;SDS011;61705;46.228;24.812;2022-11-21T04:14:24;7.28;;;3.70;;
51260;SDS011;61705;46.228;24.812;2022-11-21T04:16:51;7.57;;;3.60;;
51260;SDS011;61705;46.228;24.812;2022-11-21T04:19:18;5.05;;;2.17;;
51260;SDS011;61705;46.228;24.812;2022-11-21T04:21:44;8.23;;;2.63;;
51260;SDS011;61705;46.228;24.812;2022-11-21T04:24:11;9.27;;;3.55;;
51260;SDS011;61705;46.228;24.812;2022-11-21T04:26:38;8.35;;;3.80;;
51260;SDS011;61705;46.228;24.812;2022-11-21T04:29:04;5.28;;;2.50;;
51260;SDS011;61705;46.228;24.812;2022-11-21T04:31:31;7.68;;;3.30;;
51260;SDS011;61705;46.228;24.812;2022-11-21T04:33:58;7.03;;;3.38;;
51260;SDS011;61705;46.228;24.812;2022-11-21T04:36:24;10.88;;;4.68;;
51260;SDS011;61705;46.228;24.812;2022-11-21T04:38:51;5.40;;;2.83;;
51260;SDS011;61705;46.228;24.812;2022-11-21T04:41:18;8.82;;;4.95;;
51260;SDS011;61705;46.228;24.812;2022-11-21T04:43:44;7.85;;;4.05;;
51260;SDS011;61705;46.228;24.812;2022-11-21T04:46:11;11.35;;;4.50;;
51260;SDS011;61705;46.228;24.812;2022-11-21T04:48:38;9.45;;;4.80;;
51260;SDS011;61705;46.228;24.812;2022-11-21T04:51:04;12.85;;;4.78;;
51260;SDS011;61705;46.228;24.812;2022-11-21T04:53:31;11.93;;;4.82;;
51260;SDS011;61705;46.228;24.812;2022-11-21T04:55:58;10.00;;;4.40;;
51260;SDS011;61705;46.228;24.812;2022-11-21T04:58:25;12.82;;;4.32;;
51260;SDS011;61705;46.228;24.812;2022-11-21T05:00:52;8.98;;;4.00;;
51260;SDS011;61705;46.228;24.812;2022-11-21T05:03:18;9.65;;;4.40;;
51260;SDS011;61705;46.228;24.812;2022-11-21T05:05:45;13.82;;;6.10;;
51260;SDS011;61705;46.228;24.812;2022-11-21T05:08:12;12.52;;;4.53;;
51260;SDS011;61705;46.228;24.812;2022-11-21T05:10:38;8.77;;;3.70;;
51260;SDS011;61705;46.228;24.812;2022-11-21T05:13:23;8.23;;;3.80;;
51260;SDS011;61705;46.228;24.812;2022-11-21T05:15:55;10.60;;;4.28;;
51260;SDS011;61705;46.228;24.812;2022-11-21T05:18:24;8.20;;;3.13;;
51260;SDS011;61705;46.228;24.812;2022-11-21T05:20:51;7.13;;;3.92;;
51260;SDS011;61705;46.228;24.812;2022-11-21T05:23:18;7.90;;;3.70;;
51260;SDS011;61705;46.228;24.812;2022-11-21T05:25:44;10.23;;;4.10;;
51260;SDS011;61705;46.228;24.812;2022-11-21T05:28:11;9.05;;;4.40;;
51260;SDS011;61705;46.228;24.812;2022-11-21T05:30:38;11.05;;;4.95;;
51260;SDS011;61705;46.228;24.812;2022-11-21T05:33:04;9.18;;;4.20;;
51260;SDS011;61705;46.228;24.812;2022-11-21T05:35:31;7.93;;;3.85;;
51260;SDS011;61705;46.228;24.812;2022-11-21T05:37:58;7.05;;;3.70;;
51260;SDS011;61705;46.228;24.812;2022-11-21T05:40:26;7.05;;;3.85;;
51260;SDS011;61705;46.228;24.812;2022-11-21T05:42:53;6.93;;;4.00;;
51260;SDS011;61705;46.228;24.812;2022-11-21T05:45:38;7.30;;;3.63;;
51260;SDS011;61705;46.228;24.812;2022-11-21T05:48:05;5.47;;;2.55;;
51260;SDS011;61705;46.228;24.812;2022-11-21T05:50:35;22.63;;;10.70;;
51260;SDS011;61705;46.228;24.812;2022-11-21T05:53:04;8.20;;;3.80;;
51260;SDS011;61705;46.228;24.812;2022-11-21T05:55:34;6.68;;;3.40;;
51260;SDS011;61705;46.228;24.812;2022-11-21T05:58:00;6.93;;;3.80;;
51260;SDS011;61705;46.228;24.812;2022-11-21T06:00:27;5.30;;;3.13;;
51260;SDS011;61705;46.228;24.812;2022-11-21T06:02:54;7.38;;;3.42;;
51260;SDS011;61705;46.228;24.812;2022-11-21T06:05:39;5.18;;;2.88;;
51260;SDS011;61705;46.228;24.812;2022-11-21T06:08:06;4.97;;;2.70;;
51260;SDS011;61705;46.228;24.812;2022-11-21T06:10:33;8.35;;;3.80;;
51260;SDS011;61705;46.228;24.812;2022-11-21T06:13:00;9.20;;;4.93;;
51260;SDS011;61705;46.228;24.812;2022-11-21T06:15:27;6.28;;;3.13;;
51260;SDS011;61705;46.228;24.812;2022-11-21T06:17:54;5.90;;;2.85;;
51260;SDS011;61705;46.228;24.812;2022-11-21T06:20:21;6.53;;;2.95;;
51260;SDS011;61705;46.228;24.812;2022-11-21T06:22:47;6.47;;;2.97;;
51260;SDS011;61705;46.228;24.812;2022-11-21T06:25:14;7.18;;;2.97;;
51260;SDS011;61705;46.228;24.812;2022-11-21T06:27:41;7.78;;;3.22;;
51260;SDS011;61705;46.228;24.812;2022-11-21T06:30:08;7.22;;;3.17;;
51260;SDS011;61705;46.228;24.812;2022-11-21T06:32:35;4.28;;;2.30;;
51260;SDS011;61705;46.228;24.812;2022-11-21T06:35:03;7.80;;;3.20;;
51260;SDS011;61705;46.228;24.812;2022-11-21T06:37:30;8.88;;;3.28;;
51260;SDS011;61705;46.228;24.812;2022-11-21T06:39:57;4.38;;;2.20;;
51260;SDS011;61705;46.228;24.812;2022-11-21T06:42:24;3.70;;;2.13;;
51260;SDS011;61705;46.228;24.812;2022-11-21T06:44:51;6.88;;;3.72;;
51260;SDS011;61705;46.228;24.812;2022-11-21T06:47:18;3.25;;;1.85;;
51260;SDS011;61705;46.228;24.812;2022-11-21T06:49:45;4.85;;;2.67;;
51260;SDS011;61705;46.228;24.812;2022-11-21T06:52:12;8.52;;;2.75;;
51260;SDS011;61705;46.228;24.812;2022-11-21T06:54:39;17.67;;;6.75;;
51260;SDS011;61705;46.228;24.812;2022-11-21T06:57:05;26.88;;;13.65;;
51260;SDS011;61705;46.228;24.812;2022-11-21T06:59:32;7.18;;;4.22;;
51260;SDS011;61705;46.228;24.812;2022-11-21T07:01:59;5.70;;;2.53;;
51260;SDS011;61705;46.228;24.812;2022-11-21T07:04:26;4.47;;;2.30;;
51260;SDS011;61705;46.228;24.812;2022-11-21T07:06:53;5.30;;;2.53;;
51260;SDS011;61705;46.228;24.812;2022-11-21T07:09:19;8.15;;;5.22;;
51260;SDS011;61705;46.228;24.812;2022-11-21T07:12:02;7.55;;;2.95;;
51260;SDS011;61705;46.228;24.812;2022-11-21T07:14:49;10.20;;;4.10;;
51260;SDS011;61705;46.228;24.812;2022-11-21T07:17:15;7.47;;;3.40;;
51260;SDS011;61705;46.228;24.812;2022-11-21T07:19:42;5.82;;;2.90;;
51260;SDS011;61705;46.228;24.812;2022-11-21T07:22:09;6.60;;;3.30;;
51260;SDS011;61705;46.228;24.812;2022-11-21T07:24:35;9.80;;;4.28;;
51260;SDS011;61705;46.228;24.812;2022-11-21T07:27:02;7.93;;;3.83;;
51260;SDS011;61705;46.228;24.812;2022-11-21T07:29:29;10.75;;;4.32;;
51260;SDS011;61705;46.228;24.812;2022-11-21T07:31:56;7.90;;;3.90;;
51260;SDS011;61705;46.228;24.812;2022-11-21T07:34:22;6.78;;;3.80;;
51260;SDS011;61705;46.228;24.812;2022-11-21T07:36:49;6.43;;;2.83;;
51260;SDS011;61705;46.228;24.812;2022-11-21T07:39:16;11.18;;;4.80;;
51260;SDS011;61705;46.228;24.812;2022-11-21T07:41:42;8.93;;;3.83;;
51260;SDS011;61705;46.228;24.812;2022-11-21T07:44:09;7.20;;;3.75;;
51260;SDS011;61705;46.228;24.812;2022-11-21T07:46:36;8.02;;;4.00;;
51260;SDS011;61705;46.228;24.812;2022-11-21T07:49:02;10.25;;;4.57;;
51260;SDS011;61705;46.228;24.812;2022-11-21T07:51:29;11.68;;;6.65;;
51260;SDS011;61705;46.228;24.812;2022-11-21T07:53:56;8.18;;;3.55;;
51260;SDS011;61705;46.228;24.812;2022-11-21T07:56:25;6.30;;;3.60;;
51260;SDS011;61705;46.228;24.812;2022-11-21T07:58:52;7.30;;;3.45;;
51260;SDS011;61705;46.228;24.812;2022-11-21T08:01:18;6.72;;;3.08;;
51260;SDS011;61705;46.228;24.812;2022-11-21T08:03:45;5.78;;;3.10;;
51260;SDS011;61705;46.228;24.812;2022-11-21T08:06:12;8.77;;;4.95;;
51260;SDS011;61705;46.228;24.812;2022-11-21T08:08:39;11.90;;;6.93;;
51260;SDS011;61705;46.228;24.812;2022-11-21T08:11:05;8.30;;;4.20;;
51260;SDS011;61705;46.228;24.812;2022-11-21T08:13:33;7.78;;;4.10;;
51260;SDS011;61705;46.228;24.812;2022-11-21T08:16:03;9.73;;;4.53;;
51260;SDS011;61705;46.228;24.812;2022-11-21T08:18:30;10.55;;;5.18;;
51260;SDS011;61705;46.228;24.812;2022-11-21T08:21:00;6.72;;;3.33;;
51260;SDS011;61705;46.228;24.812;2022-11-21T08:23:28;4.97;;;2.50;;
51260;SDS011;61705;46.228;24.812;2022-11-21T08:25:55;5.95;;;2.30;;
51260;SDS011;61705;46.228;24.812;2022-11-21T08:28:24;3.67;;;1.85;;
51260;SDS011;61705;46.228;24.812;2022-11-21T08:30:50;5.72;;;2.33;;
51260;SDS011;61705;46.228;24.812;2022-11-21T08:33:20;5.30;;;3.10;;
51260;SDS011;61705;46.228;24.812;2022-11-21T08:35:49;8.38;;;3.33;;
51260;SDS011;61705;46.228;24.812;2022-11-21T08:38:15;13.45;;;5.68;;
51260;SDS011;61705;46.228;24.812;2022-11-21T08:40:42;16.38;;;5.97;;
51260;SDS011;61705;46.228;24.812;2022-11-21T08:43:09;8.30;;;4.35;;
51260;SDS011;61705;46.228;24.812;2022-11-21T08:45:36;19.88;;;7.20;;
51260;SDS011;61705;46.228;24.812;2022-11-21T08:48:08;19.90;;;10.18;;
51260;SDS011;61705;46.228;24.812;2022-11-21T08:50:36;16.98;;;7.57;;
51260;SDS011;61705;46.228;24.812;2022-11-21T08:53:03;8.10;;;3.33;;
51260;SDS011;61705;46.228;24.812;2022-11-21T08:55:30;7.70;;;3.20;;
51260;SDS011;61705;46.228;24.812;2022-11-21T08:57:56;10.55;;;4.85;;
51260;SDS011;61705;46.228;24.812;2022-11-21T09:00:25;8.63;;;3.25;;
51260;SDS011;61705;46.228;24.812;2022-11-21T09:02:52;5.75;;;2.53;;
51260;SDS011;61705;46.228;24.812;2022-11-21T09:05:19;7.50;;;4.18;;
51260;SDS011;61705;46.228;24.812;2022-11-21T09:07:45;8.95;;;3.83;;
51260;SDS011;61705;46.228;24.812;2022-11-21T09:10:15;5.53;;;2.53;;
51260;SDS011;61705;46.228;24.812;2022-11-21T09:12:41;7.82;;;3.80;;
51260;SDS011;61705;46.228;24.812;2022-11-21T09:15:08;5.63;;;2.55;;
51260;SDS011;61705;46.228;24.812;2022-11-21T09:17:54;7.85;;;3.85;;
51260;SDS011;61705;46.228;24.812;2022-11-21T09:20:28;7.45;;;2.65;;
51260;SDS011;61705;46.228;24.812;2022-11-21T09:23:03;5.13;;;2.47;;
51260;SDS011;61705;46.228;24.812;2022-11-21T09:25:30;11.13;;;4.82;;
51260;SDS011;61705;46.228;24.812;2022-11-21T09:28:03;4.38;;;2.22;;
51260;SDS011;61705;46.228;24.812;2022-11-21T09:30:32;4.78;;;2.30;;
51260;SDS011;61705;46.228;24.812;2022-11-21T09:33:03;10.82;;;4.35;;
51260;SDS011;61705;46.228;24.812;2022-11-21T09:35:31;6.10;;;3.25;;
51260;SDS011;61705;46.228;24.812;2022-11-21T09:37:58;5.07;;;2.92;;
51260;SDS011;61705;46.228;24.812;2022-11-21T09:40:25;6.82;;;2.28;;
51260;SDS011;61705;46.228;24.812;2022-11-21T09:45:25;5.15;;;2.47;;
51260;SDS011;61705;46.228;24.812;2022-11-21T09:47:55;5.07;;;2.50;;
51260;SDS011;61705;46.228;24.812;2022-11-21T09:50:30;4.65;;;1.95;;
